sensor_id;sensor_type;location;lat;lon;timestamp;P1;durP1;ratioP1;P2;durP2;ratioP2
40953;SDS011;26686;50.130;8.710;2023-03-14T00:05:01;1.23;;;0.68;;
40953;SDS011;26686;50.130;8.710;2023-03-14T00:10:12;1.60;;;0.98;;
40953;SDS011;26686;50.130;8.710;2023-03-14T00:15:15;0.80;;;0.60;;
40953;SDS011;26686;50.130;8.710;2023-03-14T00:20:16;1.90;;;0.88;;
40953;SDS011;26686;50.130;8.710;2023-03-14T00:25:18;1.27;;;0.52;;
40953;SDS011;26686;50.130;8.710;2023-03-14T00:30:19;1.63;;;0.65;;
40953;SDS011;26686;50.130;8.710;2023-03-14T00:35:21;1.17;;;0.60;;
40953;SDS011;26686;50.130;8.710;2023-03-14T00:40:22;1.65;;;0.52;;
40953;SDS011;26686;50.130;8.710;2023-03-14T00:45:24;3.10;;;0.77;;
40953;SDS011;26686;50.130;8.710;2023-03-14T00:50:25;1.30;;;0.65;;
40953;SDS011;26686;50.130;8.710;2023-03-14T00:55:27;1.98;;;1.17;;
40953;SDS011;26686;50.130;8.710;2023-03-14T01:00:28;0.80;;;0.52;;
40953;SDS011;26686;50.130;8.710;2023-03-14T01:05:30;0.95;;;0.57;;
40953;SDS011;26686;50.130;8.710;2023-03-14T01:10:31;2.88;;;0.50;;
40953;SDS011;26686;50.130;8.710;2023-03-14T01:15:33;1.95;;;0.60;;
40953;SDS011;26686;50.130;8.710;2023-03-14T01:20:36;2.45;;;0.65;;
40953;SDS011;26686;50.130;8.710;2023-03-14T01:25:40;2.22;;;0.70;;
40953;SDS011;26686;50.130;8.710;2023-03-14T01:30:42;1.55;;;0.50;;
40953;SDS011;26686;50.130;8.710;2023-03-14T01:35:43;2.22;;;0.73;;
40953;SDS011;26686;50.130;8.710;2023-03-14T01:40:45;2.05;;;0.57;;
40953;SDS011;26686;50.130;8.710;2023-03-14T01:51:08;4.13;;;0.68;;
40953;SDS011;26686;50.130;8.710;2023-03-14T01:56:14;1.60;;;0.70;;
40953;SDS011;26686;50.130;8.710;2023-03-14T02:01:19;2.60;;;0.80;;
40953;SDS011;26686;50.130;8.710;2023-03-14T02:06:26;2.70;;;0.85;;
40953;SDS011;26686;50.130;8.710;2023-03-14T02:11:34;1.88;;;0.50;;
40953;SDS011;26686;50.130;8.710;2023-03-14T02:16:35;3.50;;;0.80;;
40953;SDS011;26686;50.130;8.710;2023-03-14T02:27:07;4.38;;;0.70;;
40953;SDS011;26686;50.130;8.710;2023-03-14T02:32:15;4.32;;;0.80;;
40953;SDS011;26686;50.130;8.710;2023-03-14T02:37:19;2.20;;;0.70;;
40953;SDS011;26686;50.130;8.710;2023-03-14T02:42:22;2.47;;;0.70;;
40953;SDS011;26686;50.130;8.710;2023-03-14T02:47:26;3.10;;;0.70;;
40953;SDS011;26686;50.130;8.710;2023-03-14T02:52:29;4.60;;;1.52;;
40953;SDS011;26686;50.130;8.710;2023-03-14T02:57:31;0.85;;;0.40;;
40953;SDS011;26686;50.130;8.710;2023-03-14T03:02:32;2.90;;;1.45;;
40953;SDS011;26686;50.130;8.710;2023-03-14T03:07:34;3.70;;;0.80;;
40953;SDS011;26686;50.130;8.710;2023-03-14T03:12:35;1.98;;;0.80;;
40953;SDS011;26686;50.130;8.710;2023-03-14T03:17:36;3.88;;;0.70;;
40953;SDS011;26686;50.130;8.710;2023-03-14T03:22:38;4.15;;;0.70;;
40953;SDS011;26686;50.130;8.710;2023-03-14T03:27:40;1.58;;;0.60;;
40953;SDS011;26686;50.130;8.710;2023-03-14T03:32:41;1.50;;;0.50;;
40953;SDS011;26686;50.130;8.710;2023-03-14T03:37:43;3.70;;;1.02;;
40953;SDS011;26686;50.130;8.710;2023-03-14T03:42:45;1.50;;;0.60;;
40953;SDS011;26686;50.130;8.710;2023-03-14T03:47:47;3.47;;;0.60;;
40953;SDS011;26686;50.130;8.710;2023-03-14T03:52:49;2.03;;;0.60;;
40953;SDS011;26686;50.130;8.710;2023-03-14T03:57:50;2.50;;;0.60;;
40953;SDS011;26686;50.130;8.710;2023-03-14T04:02:52;1.88;;;0.75;;
40953;SDS011;26686;50.130;8.710;2023-03-14T04:07:53;2.30;;;0.68;;
40953;SDS011;26686;50.130;8.710;2023-03-14T04:12:55;3.05;;;0.85;;
40953;SDS011;26686;50.130;8.710;2023-03-14T04:17:57;3.55;;;0.98;;
40953;SDS011;26686;50.130;8.710;2023-03-14T04:22:59;3.25;;;0.60;;
40953;SDS011;26686;50.130;8.710;2023-03-14T04:28:01;1.60;;;0.60;;
40953;SDS011;26686;50.130;8.710;2023-03-14T04:33:02;4.15;;;1.25;;
40953;SDS011;26686;50.130;8.710;2023-03-14T04:38:04;3.40;;;0.80;;
40953;SDS011;26686;50.130;8.710;2023-03-14T04:43:06;2.08;;;0.68;;
40953;SDS011;26686;50.130;8.710;2023-03-14T04:48:12;3.53;;;0.60;;
40953;SDS011;26686;50.130;8.710;2023-03-14T04:53:16;2.88;;;1.27;;
40953;SDS011;26686;50.130;8.710;2023-03-14T04:58:18;2.45;;;0.80;;
40953;SDS011;26686;50.130;8.710;2023-03-14T05:03:20;2.15;;;0.65;;
40953;SDS011;26686;50.130;8.710;2023-03-14T05:08:21;5.45;;;1.55;;
40953;SDS011;26686;50.130;8.710;2023-03-14T05:13:23;3.15;;;0.60;;
40953;SDS011;26686;50.130;8.710;2023-03-14T05:18:24;2.65;;;1.23;;
40953;SDS011;26686;50.130;8.710;2023-03-14T05:23:26;2.05;;;0.60;;
40953;SDS011;26686;50.130;8.710;2023-03-14T05:28:28;2.97;;;0.65;;
40953;SDS011;26686;50.130;8.710;2023-03-14T05:33:30;4.50;;;0.75;;
40953;SDS011;26686;50.130;8.710;2023-03-14T05:38:31;2.78;;;0.85;;
40953;SDS011;26686;50.130;8.710;2023-03-14T05:43:32;2.40;;;0.50;;
40953;SDS011;26686;50.130;8.710;2023-03-14T05:48:34;3.47;;;0.70;;
40953;SDS011;26686;50.130;8.710;2023-03-14T05:53:35;2.20;;;0.50;;
40953;SDS011;26686;50.130;8.710;2023-03-14T05:58:37;3.10;;;0.50;;
40953;SDS011;26686;50.130;8.710;2023-03-14T06:03:39;2.42;;;0.68;;
40953;SDS011;26686;50.130;8.710;2023-03-14T06:08:40;2.58;;;0.50;;
40953;SDS011;26686;50.130;8.710;2023-03-14T06:13:42;2.10;;;0.38;;
40953;SDS011;26686;50.130;8.710;2023-03-14T06:18:43;4.40;;;1.00;;
40953;SDS011;26686;50.130;8.710;2023-03-14T06:23:47;4.77;;;0.97;;
40953;SDS011;26686;50.130;8.710;2023-03-14T06:28:49;1.10;;;0.43;;
40953;SDS011;26686;50.130;8.710;2023-03-14T06:33:52;1.52;;;0.60;;
40953;SDS011;26686;50.130;8.710;2023-03-14T06:38:53;3.03;;;0.77;;
40953;SDS011;26686;50.130;8.710;2023-03-14T06:43:55;5.15;;;1.00;;
40953;SDS011;26686;50.130;8.710;2023-03-14T06:48:56;3.45;;;0.80;;
40953;SDS011;26686;50.130;8.710;2023-03-14T06:53:58;1.88;;;0.40;;
40953;SDS011;26686;50.130;8.710;2023-03-14T06:59:00;6.15;;;0.77;;
40953;SDS011;26686;50.130;8.710;2023-03-14T07:04:01;3.42;;;0.43;;
40953;SDS011;26686;50.130;8.710;2023-03-14T07:09:03;1.58;;;0.55;;
40953;SDS011;26686;50.130;8.710;2023-03-14T07:14:05;2.67;;;0.40;;
40953;SDS011;26686;50.130;8.710;2023-03-14T07:19:06;1.67;;;0.60;;
40953;SDS011;26686;50.130;8.710;2023-03-14T07:24:08;1.88;;;0.22;;
40953;SDS011;26686;50.130;8.710;2023-03-14T07:29:09;2.58;;;0.90;;
40953;SDS011;26686;50.130;8.710;2023-03-14T07:34:11;3.08;;;0.40;;
40953;SDS011;26686;50.130;8.710;2023-03-14T07:39:12;1.65;;;0.50;;
40953;SDS011;26686;50.130;8.710;2023-03-14T07:44:14;1.58;;;0.68;;
40953;SDS011;26686;50.130;8.710;2023-03-14T07:49:15;1.60;;;0.60;;
40953;SDS011;26686;50.130;8.710;2023-03-14T07:54:17;3.40;;;0.40;;
40953;SDS011;26686;50.130;8.710;2023-03-14T07:59:21;4.10;;;0.40;;
40953;SDS011;26686;50.130;8.710;2023-03-14T08:04:22;1.48;;;0.40;;
40953;SDS011;26686;50.130;8.710;2023-03-14T08:09:23;2.20;;;0.52;;
40953;SDS011;26686;50.130;8.710;2023-03-14T08:14:25;3.53;;;0.47;;
40953;SDS011;26686;50.130;8.710;2023-03-14T08:19:26;2.95;;;0.40;;
40953;SDS011;26686;50.130;8.710;2023-03-14T08:24:28;5.03;;;0.80;;
40953;SDS011;26686;50.130;8.710;2023-03-14T08:29:29;4.05;;;0.70;;
40953;SDS011;26686;50.130;8.710;2023-03-14T08:34:32;1.95;;;0.30;;
40953;SDS011;26686;50.130;8.710;2023-03-14T08:39:34;2.83;;;0.68;;
40953;SDS011;26686;50.130;8.710;2023-03-14T08:44:35;1.52;;;0.50;;
40953;SDS011;26686;50.130;8.710;2023-03-14T08:49:37;2.60;;;0.68;;
40953;SDS011;26686;50.130;8.710;2023-03-14T08:54:39;2.15;;;0.40;;
40953;SDS011;26686;50.130;8.710;2023-03-14T08:59:41;4.40;;;0.55;;
40953;SDS011;26686;50.130;8.710;2023-03-14T09:04:42;2.90;;;0.85;;
40953;SDS011;26686;50.130;8.710;2023-03-14T09:09:44;2.97;;;1.52;;
40953;SDS011;26686;50.130;8.710;2023-03-14T09:14:45;1.55;;;0.43;;
40953;SDS011;26686;50.130;8.710;2023-03-14T09:19:47;1.30;;;0.40;;
40953;SDS011;26686;50.130;8.710;2023-03-14T09:24:48;1.42;;;0.43;;
40953;SDS011;26686;50.130;8.710;2023-03-14T09:29:50;2.22;;;0.47;;
40953;SDS011;26686;50.130;8.710;2023-03-14T09:34:51;0.85;;;0.40;;
40953;SDS011;26686;50.130;8.710;2023-03-14T09:39:53;2.50;;;0.35;;
40953;SDS011;26686;50.130;8.710;2023-03-14T09:44:56;0.60;;;0.55;;
40953;SDS011;26686;50.130;8.710;2023-03-14T09:50:00;1.02;;;0.57;;
40953;SDS011;26686;50.130;8.710;2023-03-14T09:55:03;1.90;;;0.50;;
40953;SDS011;26686;50.130;8.710;2023-03-14T10:00:20;1.73;;;0.30;;
40953;SDS011;26686;50.130;8.710;2023-03-14T10:05:24;0.70;;;0.32;;
40953;SDS011;26686;50.130;8.710;2023-03-14T10:10:29;1.77;;;0.45;;
40953;SDS011;26686;50.130;8.710;2023-03-14T10:15:31;0.73;;;0.50;;
40953;SDS011;26686;50.130;8.710;2023-03-14T10:25:38;1.83;;;0.40;;
40953;SDS011;26686;50.130;8.710;2023-03-14T10:30:45;1.50;;;0.47;;
40953;SDS011;26686;50.130;8.710;2023-03-14T10:35:52;2.05;;;0.80;;
40953;SDS011;26686;50.130;8.710;2023-03-14T10:40:58;2.05;;;1.10;;
40953;SDS011;26686;50.130;8.710;2023-03-14T10:46:05;0.57;;;0.28;;
40953;SDS011;26686;50.130;8.710;2023-03-14T10:56:18;1.50;;;0.50;;
40953;SDS011;26686;50.130;8.710;2023-03-14T11:06:33;1.05;;;0.40;;
40953;SDS011;26686;50.130;8.710;2023-03-14T11:11:46;0.90;;;0.40;;
40953;SDS011;26686;50.130;8.710;2023-03-14T11:16:53;0.80;;;0.63;;
40953;SDS011;26686;50.130;8.710;2023-03-14T11:22:06;0.85;;;0.50;;
40953;SDS011;26686;50.130;8.710;2023-03-14T11:27:35;2.58;;;0.65;;
40953;SDS011;26686;50.130;8.710;2023-03-14T11:32:45;2.72;;;0.88;;
40953;SDS011;26686;50.130;8.710;2023-03-14T11:37:47;2.45;;;0.73;;
40953;SDS011;26686;50.130;8.710;2023-03-14T11:43:04;2.25;;;0.70;;
40953;SDS011;26686;50.130;8.710;2023-03-14T11:59:51;0.82;;;0.52;;
40953;SDS011;26686;50.130;8.710;2023-03-14T12:10:05;2.60;;;0.80;;
40953;SDS011;26686;50.130;8.710;2023-03-14T12:15:15;2.72;;;0.90;;
40953;SDS011;26686;50.130;8.710;2023-03-14T12:20:24;0.98;;;0.77;;
40953;SDS011;26686;50.130;8.710;2023-03-14T12:25:27;1.38;;;0.13;;
40953;SDS011;26686;50.130;8.710;2023-03-14T12:30:33;0.73;;;0.10;;
40953;SDS011;26686;50.130;8.710;2023-03-14T12:35:43;0.30;;;0.10;;
40953;SDS011;26686;50.130;8.710;2023-03-14T12:40:56;0.10;;;0.00;;
40953;SDS011;26686;50.130;8.710;2023-03-14T12:46:19;0.00;;;0.00;;
40953;SDS011;26686;50.130;8.710;2023-03-14T12:51:29;0.20;;;0.10;;
40953;SDS011;26686;50.130;8.710;2023-03-14T12:56:40;0.20;;;0.10;;
40953;SDS011;26686;50.130;8.710;2023-03-14T13:01:55;0.98;;;0.30;;
40953;SDS011;26686;50.130;8.710;2023-03-14T13:07:01;1.85;;;0.30;;
40953;SDS011;26686;50.130;8.710;2023-03-14T13:12:09;0.38;;;0.10;;
40953;SDS011;26686;50.130;8.710;2023-03-14T13:17:12;0.73;;;0.30;;
40953;SDS011;26686;50.130;8.710;2023-03-14T13:22:34;0.50;;;0.30;;
40953;SDS011;26686;50.130;8.710;2023-03-14T13:27:38;0.57;;;0.30;;
40953;SDS011;26686;50.130;8.710;2023-03-14T13:32:43;0.30;;;0.20;;
40953;SDS011;26686;50.130;8.710;2023-03-14T13:37:47;0.30;;;0.20;;
40953;SDS011;26686;50.130;8.710;2023-03-14T13:53:30;1.48;;;0.30;;
40953;SDS011;26686;50.130;8.710;2023-03-14T13:58:32;0.57;;;0.22;;
40953;SDS011;26686;50.130;8.710;2023-03-14T14:03:38;1.00;;;0.20;;
40953;SDS011;26686;50.130;8.710;2023-03-14T14:08:43;0.63;;;0.10;;
40953;SDS011;26686;50.130;8.710;2023-03-14T14:13:45;2.20;;;0.30;;
40953;SDS011;26686;50.130;8.710;2023-03-14T14:18:47;0.80;;;0.20;;
40953;SDS011;26686;50.130;8.710;2023-03-14T14:23:49;0.90;;;0.20;;
40953;SDS011;26686;50.130;8.710;2023-03-14T14:28:58;0.68;;;0.22;;
40953;SDS011;26686;50.130;8.710;2023-03-14T14:34:02;1.77;;;0.17;;
40953;SDS011;26686;50.130;8.710;2023-03-14T14:39:06;0.28;;;0.08;;
40953;SDS011;26686;50.130;8.710;2023-03-14T14:44:13;0.30;;;0.10;;
40953;SDS011;26686;50.130;8.710;2023-03-14T14:49:21;1.77;;;0.10;;
40953;SDS011;26686;50.130;8.710;2023-03-14T14:54:35;0.25;;;0.10;;
40953;SDS011;26686;50.130;8.710;2023-03-14T14:59:43;1.13;;;0.30;;
40953;SDS011;26686;50.130;8.710;2023-03-14T15:04:46;0.40;;;0.20;;
40953;SDS011;26686;50.130;8.710;2023-03-14T15:09:48;0.60;;;0.40;;
40953;SDS011;26686;50.130;8.710;2023-03-14T15:14:50;0.10;;;0.10;;
40953;SDS011;26686;50.130;8.710;2023-03-14T15:19:51;1.00;;;0.65;;
40953;SDS011;26686;50.130;8.710;2023-03-14T15:24:53;1.00;;;0.70;;
40953;SDS011;26686;50.130;8.710;2023-03-14T15:29:54;0.93;;;0.82;;
40953;SDS011;26686;50.130;8.710;2023-03-14T15:34:56;0.57;;;0.32;;
40953;SDS011;26686;50.130;8.710;2023-03-14T15:39:58;0.50;;;0.32;;
40953;SDS011;26686;50.130;8.710;2023-03-14T15:44:59;1.50;;;0.40;;
40953;SDS011;26686;50.130;8.710;2023-03-14T15:50:01;0.20;;;0.10;;
40953;SDS011;26686;50.130;8.710;2023-03-14T15:55:03;0.30;;;0.10;;
40953;SDS011;26686;50.130;8.710;2023-03-14T16:00:04;1.25;;;0.13;;
40953;SDS011;26686;50.130;8.710;2023-03-14T16:05:09;0.30;;;0.25;;
40953;SDS011;26686;50.130;8.710;2023-03-14T16:10:11;0.57;;;0.20;;
40953;SDS011;26686;50.130;8.710;2023-03-14T16:15:14;0.40;;;0.20;;
40953;SDS011;26686;50.130;8.710;2023-03-14T16:20:16;0.47;;;0.20;;
40953;SDS011;26686;50.130;8.710;2023-03-14T16:25:20;0.70;;;0.38;;
40953;SDS011;26686;50.130;8.710;2023-03-14T16:30:22;0.85;;;0.20;;
40953;SDS011;26686;50.130;8.710;2023-03-14T16:35:23;0.55;;;0.43;;
40953;SDS011;26686;50.130;8.710;2023-03-14T16:40:25;0.68;;;0.28;;
40953;SDS011;26686;50.130;8.710;2023-03-14T16:45:26;0.88;;;0.22;;
40953;SDS011;26686;50.130;8.710;2023-03-14T16:50:28;0.60;;;0.40;;
40953;SDS011;26686;50.130;8.710;2023-03-14T16:55:30;0.43;;;0.35;;
40953;SDS011;26686;50.130;8.710;2023-03-14T17:00:32;0.40;;;0.20;;
40953;SDS011;26686;50.130;8.710;2023-03-14T17:05:33;1.55;;;0.45;;
40953;SDS011;26686;50.130;8.710;2023-03-14T17:10:34;0.75;;;0.43;;
40953;SDS011;26686;50.130;8.710;2023-03-14T17:15:42;0.87;;;0.40;;
40953;SDS011;26686;50.130;8.710;2023-03-14T17:20:46;0.20;;;0.10;;
40953;SDS011;26686;50.130;8.710;2023-03-14T17:25:48;1.35;;;0.40;;
40953;SDS011;26686;50.130;8.710;2023-03-14T17:30:59;0.43;;;0.22;;
40953;SDS011;26686;50.130;8.710;2023-03-14T17:36:02;0.30;;;0.30;;
40953;SDS011;26686;50.130;8.710;2023-03-14T17:41:09;0.28;;;0.10;;
40953;SDS011;26686;50.130;8.710;2023-03-14T17:46:12;0.73;;;0.22;;
40953;SDS011;26686;50.130;8.710;2023-03-14T17:51:17;0.63;;;0.28;;
40953;SDS011;26686;50.130;8.710;2023-03-14T17:56:19;0.88;;;0.30;;
40953;SDS011;26686;50.130;8.710;2023-03-14T18:01:20;0.75;;;0.28;;
40953;SDS011;26686;50.130;8.710;2023-03-14T18:06:22;0.75;;;0.30;;
40953;SDS011;26686;50.130;8.710;2023-03-14T18:11:24;1.65;;;1.05;;
40953;SDS011;26686;50.130;8.710;2023-03-14T18:16:26;1.42;;;0.70;;
40953;SDS011;26686;50.130;8.710;2023-03-14T18:21:28;1.77;;;0.70;;
40953;SDS011;26686;50.130;8.710;2023-03-14T18:26:31;0.80;;;0.68;;
40953;SDS011;26686;50.130;8.710;2023-03-14T18:31:33;0.93;;;0.50;;
40953;SDS011;26686;50.130;8.710;2023-03-14T18:36:35;1.58;;;0.50;;
40953;SDS011;26686;50.130;8.710;2023-03-14T18:41:37;1.67;;;0.68;;
40953;SDS011;26686;50.130;8.710;2023-03-14T18:46:39;2.70;;;1.20;;
40953;SDS011;26686;50.130;8.710;2023-03-14T18:51:42;2.55;;;0.77;;
40953;SDS011;26686;50.130;8.710;2023-03-14T18:56:43;2.60;;;1.23;;
40953;SDS011;26686;50.130;8.710;2023-03-14T19:01:45;2.88;;;1.27;;
40953;SDS011;26686;50.130;8.710;2023-03-14T19:06:46;2.60;;;1.40;;
40953;SDS011;26686;50.130;8.710;2023-03-14T19:11:48;2.97;;;1.50;;
40953;SDS011;26686;50.130;8.710;2023-03-14T19:16:49;3.13;;;1.83;;
40953;SDS011;26686;50.130;8.710;2023-03-14T19:21:51;3.40;;;1.67;;
40953;SDS011;26686;50.130;8.710;2023-03-14T19:26:53;4.53;;;2.42;;
40953;SDS011;26686;50.130;8.710;2023-03-14T19:31:56;6.03;;;2.83;;
40953;SDS011;26686;50.130;8.710;2023-03-14T19:36:57;3.20;;;2.03;;
40953;SDS011;26686;50.130;8.710;2023-03-14T19:41:59;7.65;;;2.78;;
40953;SDS011;26686;50.130;8.710;2023-03-14T19:47:01;6.70;;;3.33;;
40953;SDS011;26686;50.130;8.710;2023-03-14T19:52:02;4.45;;;2.53;;
40953;SDS011;26686;50.130;8.710;2023-03-14T19:57:04;8.20;;;3.80;;
40953;SDS011;26686;50.130;8.710;2023-03-14T20:02:06;8.00;;;3.95;;
40953;SDS011;26686;50.130;8.710;2023-03-14T20:07:07;7.40;;;3.03;;
40953;SDS011;26686;50.130;8.710;2023-03-14T20:12:08;4.47;;;2.38;;
40953;SDS011;26686;50.130;8.710;2023-03-14T20:17:10;9.23;;;3.60;;
40953;SDS011;26686;50.130;8.710;2023-03-14T20:22:11;6.38;;;2.92;;
40953;SDS011;26686;50.130;8.710;2023-03-14T20:27:13;8.70;;;3.20;;
40953;SDS011;26686;50.130;8.710;2023-03-14T20:32:14;8.00;;;3.83;;
40953;SDS011;26686;50.130;8.710;2023-03-14T20:37:18;9.07;;;4.32;;
40953;SDS011;26686;50.130;8.710;2023-03-14T20:42:20;4.75;;;3.05;;
40953;SDS011;26686;50.130;8.710;2023-03-14T20:47:21;6.45;;;3.35;;
40953;SDS011;26686;50.130;8.710;2023-03-14T20:52:23;4.60;;;2.97;;
40953;SDS011;26686;50.130;8.710;2023-03-14T20:57:24;9.23;;;3.33;;
40953;SDS011;26686;50.130;8.710;2023-03-14T21:02:26;6.30;;;2.75;;
40953;SDS011;26686;50.130;8.710;2023-03-14T21:07:30;9.60;;;4.78;;
40953;SDS011;26686;50.130;8.710;2023-03-14T21:12:34;7.90;;;3.40;;
40953;SDS011;26686;50.130;8.710;2023-03-14T21:17:35;6.13;;;2.30;;
40953;SDS011;26686;50.130;8.710;2023-03-14T21:22:40;4.40;;;1.85;;
40953;SDS011;26686;50.130;8.710;2023-03-14T21:27:41;5.35;;;2.28;;
40953;SDS011;26686;50.130;8.710;2023-03-14T21:32:43;6.93;;;3.70;;
40953;SDS011;26686;50.130;8.710;2023-03-14T21:37:48;6.57;;;3.58;;
40953;SDS011;26686;50.130;8.710;2023-03-14T21:42:50;4.22;;;2.30;;
40953;SDS011;26686;50.130;8.710;2023-03-14T21:47:54;4.60;;;2.67;;
40953;SDS011;26686;50.130;8.710;2023-03-14T21:52:57;5.63;;;3.22;;
40953;SDS011;26686;50.130;8.710;2023-03-14T21:57:59;8.77;;;3.83;;
40953;SDS011;26686;50.130;8.710;2023-03-14T22:03:02;6.57;;;2.40;;
40953;SDS011;26686;50.130;8.710;2023-03-14T22:08:14;6.05;;;2.60;;
40953;SDS011;26686;50.130;8.710;2023-03-14T22:13:17;7.90;;;2.97;;
40953;SDS011;26686;50.130;8.710;2023-03-14T22:18:19;4.40;;;2.35;;
40953;SDS011;26686;50.130;8.710;2023-03-14T22:23:20;5.43;;;2.70;;
40953;SDS011;26686;50.130;8.710;2023-03-14T22:28:22;5.82;;;2.85;;
40953;SDS011;26686;50.130;8.710;2023-03-14T22:33:23;8.95;;;3.65;;
40953;SDS011;26686;50.130;8.710;2023-03-14T22:38:24;9.52;;;4.55;;
40953;SDS011;26686;50.130;8.710;2023-03-14T22:43:26;7.13;;;2.92;;
40953;SDS011;26686;50.130;8.710;2023-03-14T22:48:28;8.32;;;2.97;;
40953;SDS011;26686;50.130;8.710;2023-03-14T22:53:31;8.05;;;3.10;;
40953;SDS011;26686;50.130;8.710;2023-03-14T22:58:32;5.35;;;2.45;;
40953;SDS011;26686;50.130;8.710;2023-03-14T23:03:34;7.00;;;3.13;;
40953;SDS011;26686;50.130;8.710;2023-03-14T23:08:36;4.40;;;2.45;;
40953;SDS011;26686;50.130;8.710;2023-03-14T23:13:38;9.00;;;3.15;;
40953;SDS011;26686;50.130;8.710;2023-03-14T23:18:42;5.40;;;3.40;;
40953;SDS011;26686;50.130;8.710;2023-03-14T23:23:45;6.72;;;2.72;;
40953;SDS011;26686;50.130;8.710;2023-03-14T23:28:47;7.28;;;3.40;;
40953;SDS011;26686;50.130;8.710;2023-03-14T23:33:49;6.32;;;3.08;;
40953;SDS011;26686;50.130;8.710;2023-03-14T23:38:50;7.47;;;3.58;;
40953;SDS011;26686;50.130;8.710;2023-03-14T23:43:52;8.77;;;3.22;;
40953;SDS011;26686;50.130;8.710;2023-03-14T23:48:53;5.10;;;2.80;;
40953;SDS011;26686;50.130;8.710;2023-03-14T23:53:55;8.50;;;3.17;;
40953;SDS011;26686;50.130;8.710;2023-03-14T23:58:57;8.63;;;3.28;;
